Página principal
METAR-TAF:

METAR-TAF

Aeroportos :

Pointe-Noire, Congo

latitude: 04-49S, longitude: 011-54E, altura: 17 m

Observação actual do tempo

O boletim foi feito há 1 hora e 8 minutos, às 07:00 UTC
Vento 5 kt de sudeste
Temperatura 23°C
Humidade 94%
Pressão 1014 hPa
Visibilidade: 6000 m
Poucas nuvensa uma altura de 1000 ft
Nuvens fragmentadasa uma altura de 2300 ft

METAR: FCPP 250700Z 13005KT 6000 FEW010 BKN023 23/22 Q1014 NOSIG

Hora: 09:08 (08:08 UTC)

Previsão

O boletim foi feito há 3 horas e 8 minutos, às 05:00 UTC
Previsão válida de 25 às 06 UTC a 26 às 06 UTC
Vento 4 kt de su-sudoeste
Visibilidade: 2500 m
Nuvens dispersasa uma altura de 1200 ft
Nuvens fragmentadasa uma altura de 2300 ft
neblina
Tornando-se
de 25 às 06 UTC a 25 às 08 UTC
Visibilidade: 7000 m
Tornando-se
de 25 às 24 UTC a 26 às 02 UTC
Visibilidade: 3000 m
Nuvens fragmentadasa uma altura de 800 ft
neblina

TAF: FCPP 250500Z 2506/2606 20004KT 2500 BR SCT012 BKN023 BECMG 2506/2508 7000 NSW BECMG 2524/2602 3000 BR BKN008

Observações e previsões do tempo de mais de 4000 aeroportos (mensagens METAR e TAF).

As estações disponíveis são os pontos amarelos e vermelhos sobre o mapa.

Mova o rato sobre o mapa para ver o nome da estação.

Depois clique no ponto para visualizar as observações e previsões meteorológicas.

Para alterar o mapa : clique nos botões verdes com uma cruz preta para aumentar o zoom; no botão verde com uma pitada de zoom; ou nas setas verdes para mapas adjacentes.


METAR-TAF: